Time;durP1;ratioP1;P1;durP2;ratioP2;P2;SDS_P1;SDS_P2;PMS_P1;PMS_P2;Temp;Humidity;BMP_temperature;BMP_pressure;BME280_temperature;BME280_humidity;BME280_pressure;Samples;Min_cycle;Max_cycle;Signal;HPM_P1;HPM_P2
2023/02/06 00:01:39;;;;;;;16.50;11.50;;;;;;;-2.23;74.10;101439.11;107157;1254;60606;-71
2023/02/06 00:04:08;;;;;;;19.50;13.40;;;;;;;-2.25;73.98;101434.31;105859;1254;60453;-70
2023/02/06 00:06:40;;;;;;;15.50;10.60;;;;;;;-2.29;73.89;101439.35;105840;1253;67319;-71
2023/02/06 00:09:09;;;;;;;17.60;11.50;;;;;;;-2.32;73.80;101436.61;105977;1253;60518;-70
2023/02/06 00:11:40;;;;;;;16.70;10.80;;;;;;;-2.35;73.76;101437.33;106321;1254;65374;-70
2023/02/06 00:14:09;;;;;;;16.00;11.20;;;;;;;-2.38;73.63;101436.69;106174;1253;60482;-70
2023/02/06 00:16:57;;;;;;;19.00;12.40;;;;;;;-2.41;73.62;101438.44;105935;1253;60950;-71
2023/02/06 00:19:26;;;;;;;14.60;10.70;;;;;;;-2.44;73.61;101437.06;106026;1259;66737;-70
2023/02/06 00:21:54;;;;;;;15.00;10.50;;;;;;;-2.47;73.48;101439.70;107159;1254;60543;-70
2023/02/06 00:24:22;;;;;;;14.60;10.80;;;;;;;-2.50;73.35;101443.52;105769;1254;64666;-73
2023/02/06 00:26:51;;;;;;;14.20;9.90;;;;;;;-2.53;73.37;101444.89;105998;1254;60367;-70
2023/02/06 00:29:19;;;;;;;15.40;10.20;;;;;;;-2.55;73.35;101451.14;105848;1254;60550;-70
2023/02/06 00:31:47;;;;;;;13.40;9.60;;;;;;;-2.57;73.22;101449.44;105984;1255;66901;-71
2023/02/06 00:34:16;;;;;;;14.80;10.10;;;;;;;-2.59;73.20;101446.70;106141;1254;60509;-70
2023/02/06 00:36:44;;;;;;;12.60;9.60;;;;;;;-2.60;73.25;101449.98;105947;1253;65495;-70
2023/02/06 00:39:12;;;;;;;13.50;9.10;;;;;;;-2.61;73.18;101447.73;105862;1258;60404;-70
2023/02/06 00:41:41;;;;;;;14.10;10.20;;;;;;;-2.63;73.12;101447.39;105885;1261;60385;-70
2023/02/06 00:44:11;;;;;;;13.80;9.90;;;;;;;-2.65;73.07;101451.21;106027;1256;66798;-70
2023/02/06 00:46:39;;;;;;;14.80;10.10;;;;;;;-2.65;73.08;101453.63;106027;1260;60614;-71
2023/02/06 00:49:07;;;;;;;15.30;10.00;;;;;;;-2.65;72.99;101457.41;105900;1252;65784;-71
2023/02/06 00:51:38;;;;;;;14.20;10.10;;;;;;;-2.65;72.94;101458.46;105834;1254;60526;-70
2023/02/06 00:54:06;;;;;;;13.50;9.70;;;;;;;-2.65;72.96;101456.39;105805;1253;60466;-69
2023/02/06 00:56:35;;;;;;;15.90;10.20;;;;;;;-2.65;72.84;101455.54;105845;1253;65711;-70
2023/02/06 00:59:03;;;;;;;14.70;9.90;;;;;;;-2.66;72.83;101453.30;105851;1254;60466;-70
2023/02/06 01:01:32;;;;;;;14.80;9.50;;;;;;;-2.68;72.76;101457.11;105885;1253;64720;-70
2023/02/06 01:04:01;;;;;;;16.90;10.30;;;;;;;-2.72;72.73;101458.16;105846;1254;60520;-70
2023/02/06 01:06:41;;;;;;;15.80;10.10;;;;;;;-2.74;72.85;101455.59;105617;1254;60456;-70
2023/02/06 01:09:10;;;;;;;16.20;10.80;;;;;;;-2.72;72.77;101459.36;105746;1260;66787;-70
2023/02/06 01:11:38;;;;;;;16.20;10.40;;;;;;;-2.72;72.69;101459.19;105809;1254;60530;-72
2023/02/06 01:14:06;;;;;;;15.20;9.90;;;;;;;-2.73;72.62;101459.89;105783;1253;65241;-73
2023/02/06 01:16:35;;;;;;;15.40;10.20;;;;;;;-2.74;72.63;101457.66;105832;1254;60438;-70
2023/02/06 01:19:04;;;;;;;13.50;9.60;;;;;;;-2.74;72.55;101460.26;105837;1254;60516;-70
2023/02/06 01:21:33;;;;;;;14.20;9.90;;;;;;;-2.74;72.60;101464.90;105827;1259;65903;-70
2023/02/06 01:24:01;;;;;;;13.50;9.60;;;;;;;-2.75;72.53;101465.44;105797;1254;60486;-70
2023/02/06 01:26:30;;;;;;;14.10;9.20;;;;;;;-2.75;72.53;101465.42;105739;1260;65119;-70
2023/02/06 01:28:58;;;;;;;11.50;8.50;;;;;;;-2.74;72.57;101469.91;105543;1258;60540;-70
2023/02/06 01:31:28;;;;;;;12.50;9.00;;;;;;;-2.75;72.54;101472.33;105872;1254;60450;-70
2023/02/06 01:33:57;;;;;;;13.30;8.80;;;;;;;-2.74;72.47;101471.11;105808;1259;66488;-70
2023/02/06 01:36:25;;;;;;;13.60;9.20;;;;;;;-2.75;72.42;101468.71;105773;1253;60450;-70
2023/02/06 01:38:56;;;;;;;12.70;9.20;;;;;;;-2.76;72.47;101469.41;105529;1254;65376;-70
2023/02/06 01:41:24;;;;;;;12.70;8.70;;;;;;;-2.76;72.46;101470.61;105694;1259;60466;-70
2023/02/06 01:44:22;;;;;;;12.50;9.00;;;;;;;-2.78;72.40;101473.90;105967;1254;60589;-70
2023/02/06 01:46:53;;;;;;;12.10;8.60;;;;;;;-2.77;72.43;101475.97;105778;1259;66799;-70
2023/02/06 01:49:54;;;;;;;13.40;9.40;;;;;;;-2.77;72.38;101474.77;105885;1259;60443;-71
2023/02/06 01:52:24;;;;;;;15.40;9.90;;;;;;;-2.77;72.38;101475.46;106057;1254;67855;-70
2023/02/06 01:54:55;;;;;;;18.20;13.00;;;;;;;-2.78;72.47;101475.80;105821;1254;60377;-71
2023/02/06 01:57:25;;;;;;;13.60;9.50;;;;;;;-2.78;72.41;101473.23;105813;1253;60360;-69
2023/02/06 01:59:57;;;;;;;26.60;16.30;;;;;;;-2.79;72.51;101479.77;105811;1260;66788;-69
2023/02/06 02:02:26;;;;;;;19.00;11.70;;;;;;;-2.78;72.53;101477.70;105905;1253;60421;-69
2023/02/06 02:04:55;;;;;;;17.50;12.10;;;;;;;-2.80;72.58;101478.39;105799;1262;65707;-69
2023/02/06 02:07:27;;;;;;;17.10;11.10;;;;;;;-2.80;72.65;101482.35;105940;1254;60450;-69
2023/02/06 02:09:56;;;;;;;16.60;11.00;;;;;;;-2.82;72.72;101481.16;105783;1254;60437;-69
2023/02/06 02:12:27;;;;;;;17.30;11.30;;;;;;;-2.83;72.82;101484.95;105742;1260;66782;-69
2023/02/06 02:15:00;;;;;;;16.40;11.10;;;;;;;-2.84;72.88;101484.98;105756;1253;60539;-69
2023/02/06 02:17:52;;;;;;;15.50;11.10;;;;;;;-2.84;72.98;101488.94;105826;1256;65164;-69
2023/02/06 02:20:48;;;;;;;17.40;11.40;;;;;;;-2.85;73.02;101491.70;105861;1259;60517;-69
2023/02/06 02:23:22;;;;;;;15.70;11.00;;;;;;;-2.86;73.12;101491.02;105791;1254;60539;-69
2023/02/06 02:26:25;;;;;;;15.60;10.80;;;;;;;-2.87;73.21;101492.25;105974;1256;66937;-69
2023/02/06 02:29:15;;;;;;;15.60;10.70;;;;;;;-2.87;73.27;101490.34;105812;1254;68650;-70
2023/02/06 02:31:49;;;;;;;14.70;9.80;;;;;;;-2.89;73.33;101484.48;105844;1255;64306;-69
2023/02/06 02:34:35;;;;;;;13.20;9.70;;;;;;;-2.90;73.37;101487.08;105846;1254;60415;-69
2023/02/06 02:37:27;;;;;;;15.70;10.30;;;;;;;-2.91;73.36;101490.34;105646;1254;60681;-69
2023/02/06 02:40:07;;;;;;;15.10;10.60;;;;;;;-2.92;73.42;101492.25;105696;1258;66750;-69
2023/02/06 02:42:59;;;;;;;14.50;10.10;;;;;;;-2.96;73.48;101492.46;105871;1254;60475;-69
2023/02/06 02:45:33;;;;;;;13.80;9.90;;;;;;;-2.99;73.51;101499.37;105820;1253;64732;-69
2023/02/06 02:48:08;;;;;;;15.40;10.80;;;;;;;-3.01;73.55;101499.54;105723;1254;60307;-70
2023/02/06 02:50:39;;;;;;;15.60;10.40;;;;;;;-3.03;73.50;101498.87;105716;1254;60579;-69
2023/02/06 02:53:07;;;;;;;15.20;10.70;;;;;;;-3.04;73.54;101502.15;105438;1253;65993;-69
2023/02/06 02:55:35;;;;;;;16.50;11.00;;;;;;;-3.04;73.57;101497.85;105375;1259;60505;-69
2023/02/06 02:58:11;;;;;;;15.90;11.00;;;;;;;-3.07;73.57;101493.05;105456;1254;65665;-70
2023/02/06 03:00:42;;;;;;;15.50;11.00;;;;;;;-3.10;73.54;101495.11;105670;1253;60609;-69
2023/02/06 03:03:12;;;;;;;17.50;11.20;;;;;;;-3.14;73.57;101495.33;105707;1253;60450;-71
2023/02/06 03:06:08;;;;;;;17.90;12.00;;;;;;;-3.19;73.53;101496.55;105781;1254;66765;-69
2023/02/06 03:08:44;;;;;;;16.40;10.80;;;;;;;-3.22;73.67;101494.84;105825;1254;60516;-69
2023/02/06 03:11:16;;;;;;;17.10;11.20;;;;;;;-3.23;73.83;101491.91;105758;1259;64290;-70
2023/02/06 03:13:52;;;;;;;16.10;11.80;;;;;;;-3.24;73.92;101491.06;105864;1253;60348;-69
2023/02/06 03:16:39;;;;;;;18.70;11.70;;;;;;;-3.23;74.09;101491.23;106002;1253;60540;-68
2023/02/06 03:19:12;;;;;;;17.40;11.90;;;;;;;-3.22;74.12;101491.73;105884;1254;66622;-69
2023/02/06 03:21:41;;;;;;;17.40;11.80;;;;;;;-3.23;74.23;101490.71;105904;1254;60328;-68
2023/02/06 03:24:12;;;;;;;16.60;11.40;;;;;;;-3.24;74.21;101487.95;105821;1254;65629;-69
2023/02/06 03:26:41;;;;;;;15.50;11.10;;;;;;;-3.24;74.33;101487.61;105726;1253;60463;-68
2023/02/06 03:29:11;;;;;;;18.10;11.70;;;;;;;-3.24;74.48;101487.80;105635;1254;60444;-69
2023/02/06 03:31:43;;;;;;;15.50;11.40;;;;;;;-3.23;74.49;101491.57;105539;1252;65556;-70
2023/02/06 03:34:22;;;;;;;17.70;12.10;;;;;;;-3.22;74.60;101493.63;105728;1254;60492;-69
2023/02/06 03:36:50;;;;;;;17.30;12.20;;;;;;;-3.22;74.68;101496.73;105714;1259;65532;-69
2023/02/06 03:39:19;;;;;;;74.20;48.20;;;;;;;-3.22;74.80;101500.69;105762;1254;60540;-69
2023/02/06 03:41:50;;;;;;;32.50;21.90;;;;;;;-3.20;74.85;101499.64;105989;1254;60437;-69
2023/02/06 03:44:22;;;;;;;51.60;30.20;;;;;;;-3.19;74.96;101498.61;106006;1259;66597;-69
2023/02/06 03:46:50;;;;;;;61.50;30.20;;;;;;;-3.17;75.06;101499.13;105798;1254;60454;-71
2023/02/06 03:49:18;;;;;;;54.00;27.10;;;;;;;-3.14;75.16;101498.42;105747;1259;65501;-69
2023/02/06 03:51:53;;;;;;;36.50;20.60;;;;;;;-3.11;75.20;101498.21;105569;1254;60593;-69
2023/02/06 03:54:21;;;;;;;25.40;14.60;;;;;;;-3.10;75.26;101498.04;105795;1255;60416;-68
2023/02/06 03:56:54;;;;;;;21.90;13.10;;;;;;;-3.08;75.39;101495.98;105863;1254;65635;-70
2023/02/06 03:59:22;;;;;;;16.80;11.60;;;;;;;-3.07;75.42;101494.94;105821;1254;60782;-70
2023/02/06 04:01:53;;;;;;;16.30;11.00;;;;;;;-3.07;75.48;101499.77;105807;1254;65597;-69
2023/02/06 04:04:28;;;;;;;15.30;11.60;;;;;;;-3.06;75.51;101501.32;105964;1259;60334;-68
2023/02/06 04:07:02;;;;;;;14.00;10.50;;;;;;;-3.04;75.56;101504.05;105837;1254;60472;-69
2023/02/06 04:09:30;;;;;;;16.10;11.80;;;;;;;-3.03;75.59;101507.14;105812;1259;66381;-69
2023/02/06 04:11:58;;;;;;;17.50;12.00;;;;;;;-3.02;75.57;101507.99;105767;1260;60607;-69
2023/02/06 04:14:27;;;;;;;15.80;11.30;;;;;;;-3.03;75.61;101510.23;105783;1254;65284;-69
2023/02/06 04:16:55;;;;;;;22.70;14.90;;;;;;;-3.03;75.64;101511.63;105883;1253;60492;-69
2023/02/06 04:19:23;;;;;;;16.50;11.30;;;;;;;-3.02;75.64;101513.51;105798;1253;60444;-70
2023/02/06 04:21:52;;;;;;;28.50;18.20;;;;;;;-3.00;75.69;101521.08;105773;1260;66590;-69
2023/02/06 04:24:20;;;;;;;20.00;12.90;;;;;;;-3.00;75.77;101525.03;105784;1253;60993;-70
2023/02/06 04:26:48;;;;;;;16.40;12.50;;;;;;;-2.98;75.83;101525.05;105815;1254;65336;-70
2023/02/06 04:29:16;;;;;;;15.10;11.10;;;;;;;-2.95;75.93;101531.92;105866;1258;60339;-72
2023/02/06 04:31:45;;;;;;;15.30;10.00;;;;;;;-2.91;76.04;101533.61;105926;1254;60990;-70
2023/02/06 04:34:13;;;;;;;14.50;10.00;;;;;;;-2.88;76.06;101537.05;105773;1260;66819;-70
2023/02/06 04:36:41;;;;;;;12.50;9.30;;;;;;;-2.83;76.18;101542.52;105900;1254;60613;-72
2023/02/06 04:39:10;;;;;;;12.80;10.10;;;;;;;-2.80;76.29;101544.59;105789;1254;65390;-70
2023/02/06 04:41:38;;;;;;;13.30;9.50;;;;;;;-2.77;76.41;101543.20;105930;1260;60537;-70
2023/02/06 04:44:06;;;;;;;12.20;8.70;;;;;;;-2.75;76.43;101546.97;105861;1253;60457;-71
2023/02/06 04:46:35;;;;;;;14.60;9.70;;;;;;;-2.75;76.45;101546.45;105939;1256;66695;-70
2023/02/06 04:49:03;;;;;;;13.00;9.00;;;;;;;-2.73;76.48;101549.71;105881;1253;60540;-71
2023/02/06 04:51:32;;;;;;;11.00;9.10;;;;;;;-2.71;76.45;101550.39;105777;1260;65622;-70
2023/02/06 04:54:01;;;;;;;12.10;8.90;;;;;;;-2.69;76.51;101548.15;105860;1257;60425;-70
2023/02/06 04:56:30;;;;;;;13.40;9.10;;;;;;;-2.68;76.55;101546.07;105866;1254;60539;-70
2023/02/06 04:58:58;;;;;;;12.20;9.10;;;;;;;-2.66;76.59;101545.37;105922;1255;65734;-69
2023/02/06 05:01:26;;;;;;;12.30;9.40;;;;;;;-2.66;76.63;101551.56;105884;1256;60988;-73
2023/02/06 05:03:54;;;;;;;10.80;7.80;;;;;;;-2.65;76.57;101551.22;105996;1254;65551;-69
2023/02/06 05:06:23;;;;;;;13.80;8.70;;;;;;;-2.64;76.57;101550.16;105780;1255;60520;-69
2023/02/06 05:08:51;;;;;;;12.30;8.90;;;;;;;-2.63;76.53;101553.08;105880;1254;60443;-69
2023/02/06 05:11:21;;;;;;;12.90;9.00;;;;;;;-2.62;76.53;101554.46;105869;1257;66560;-69
2023/02/06 05:13:49;;;;;;;11.00;8.90;;;;;;;-2.61;76.55;101558.61;105897;1254;60846;-69
2023/02/06 05:16:17;;;;;;;11.00;8.40;;;;;;;-2.60;76.54;101557.06;105822;1254;65272;-69
2023/02/06 05:18:46;;;;;;;11.00;8.30;;;;;;;-2.59;76.52;101558.77;105802;1260;60590;-70
2023/02/06 05:21:14;;;;;;;10.60;8.60;;;;;;;-2.59;76.46;101560.15;105845;1255;60443;-73
2023/02/06 05:23:42;;;;;;;12.30;9.00;;;;;;;-2.57;76.49;101563.59;105818;1257;66950;-69
2023/02/06 05:26:10;;;;;;;10.20;7.90;;;;;;;-2.56;76.47;101564.45;105906;1254;60437;-71
2023/02/06 05:28:39;;;;;;;11.90;8.00;;;;;;;-2.56;76.36;101567.89;105890;1257;65608;-69
2023/02/06 05:31:07;;;;;;;10.70;7.70;;;;;;;-2.56;76.21;101569.09;105685;1254;60361;-69
2023/02/06 05:33:36;;;;;;;10.50;8.30;;;;;;;-2.57;76.19;101574.98;105868;1260;60415;-70
2023/02/06 05:36:06;;;;;;;10.60;8.10;;;;;;;-2.57;76.13;101573.24;105858;1260;66395;-71
2023/02/06 05:38:34;;;;;;;12.60;8.60;;;;;;;-2.56;76.20;101574.10;105504;1263;60546;-70
2023/02/06 05:41:02;;;;;;;18.80;12.10;;;;;;;-2.57;76.13;101577.73;105683;1254;65289;-70
2023/02/06 05:43:32;;;;;;;33.50;18.40;;;;;;;-2.57;76.14;101579.45;105677;1254;60346;-70
2023/02/06 05:46:00;;;;;;;17.30;11.50;;;;;;;-2.56;76.11;101580.99;105886;1260;60626;-71
2023/02/06 05:48:29;;;;;;;17.50;10.60;;;;;;;-2.54;76.11;101578.90;105755;1256;66682;-69
2023/02/06 05:50:57;;;;;;;93.00;31.30;;;;;;;-2.52;76.11;101580.44;105699;1254;60543;-72
2023/02/06 05:53:26;;;;;;;24.90;13.50;;;;;;;-2.51;76.05;101582.00;105579;1254;64409;-71
2023/02/06 05:55:55;;;;;;;16.20;10.00;;;;;;;-2.50;75.99;101583.90;105560;1253;60544;-69
2023/02/06 05:58:23;;;;;;;12.80;9.10;;;;;;;-2.50;75.97;101584.07;105692;1255;60440;-69
2023/02/06 06:00:51;;;;;;;10.20;8.10;;;;;;;-2.49;75.91;101586.13;106212;1254;65467;-69
2023/02/06 06:03:20;;;;;;;11.00;8.70;;;;;;;-2.48;75.87;101588.36;105999;1259;60402;-70
2023/02/06 06:05:48;;;;;;;10.90;7.90;;;;;;;-2.48;75.82;101586.46;105904;1256;64294;-70
2023/02/06 06:08:17;;;;;;;11.00;8.30;;;;;;;-2.48;75.75;101588.35;105744;1254;60424;-71
2023/02/06 06:10:48;;;;;;;9.40;7.40;;;;;;;-2.47;75.67;101589.05;106049;1260;60398;-71
2023/02/06 06:13:16;;;;;;;10.70;8.10;;;;;;;-2.46;75.65;101589.04;105515;1255;65488;-71
2023/02/06 06:15:50;;;;;;;11.30;8.10;;;;;;;-2.43;75.61;101591.94;105713;1259;60902;-71
2023/02/06 06:18:19;;;;;;;;;;;;;;;-2.41;75.60;101589.19;105773;1259;65569;-71
2023/02/06 06:20:48;;;;;;;12.10;9.60;;;;;;;-2.39;75.64;101594.52;105868;1257;60339;-70
2023/02/06 06:23:16;;;;;;;14.60;10.40;;;;;;;-2.37;75.56;101593.97;105753;1254;60527;-70
2023/02/06 06:25:46;;;;;;;12.20;9.40;;;;;;;-2.34;75.53;101594.45;105558;1254;65841;-70
2023/02/06 06:28:14;;;;;;;11.10;8.70;;;;;;;-2.31;75.50;101597.73;105948;1254;60433;-70
2023/02/06 06:30:43;;;;;;;11.50;8.60;;;;;;;-2.29;75.48;101599.61;105728;1254;65012;-73
2023/02/06 06:33:14;;;;;;;10.60;7.70;;;;;;;-2.26;75.45;101602.88;105937;1257;60431;-72
2023/02/06 06:35:42;;;;;;;11.20;7.90;;;;;;;-2.23;75.42;101605.78;105958;1259;60475;-71
2023/02/06 06:38:10;;;;;;;9.20;7.90;;;;;;;-2.18;75.44;101607.48;105591;1260;66731;-70
2023/02/06 06:40:39;;;;;;;9.70;7.70;;;;;;;-2.13;75.39;101607.09;105675;1261;60527;-71
2023/02/06 06:43:08;;;;;;;11.60;8.70;;;;;;;-2.09;75.27;101610.34;105489;1254;66109;-71
2023/02/06 06:45:38;;;;;;;10.00;7.90;;;;;;;-2.07;75.20;101608.59;105614;1255;60450;-72
2023/02/06 06:48:08;;;;;;;10.00;7.60;;;;;;;-2.02;75.10;101613.39;105703;1253;60498;-71
2023/02/06 06:50:36;;;;;;;8.70;7.20;;;;;;;-1.99;75.10;101611.98;105835;1260;66549;-70
2023/02/06 06:53:05;;;;;;;9.30;7.60;;;;;;;-1.96;75.05;101608.33;105773;1254;60835;-71
2023/02/06 06:55:33;;;;;;;9.90;8.00;;;;;;;-1.94;74.85;101608.66;105813;1257;65552;-70
2023/02/06 06:58:02;;;;;;;11.90;8.50;;;;;;;-1.93;74.76;101611.07;105965;1260;60478;-71
2023/02/06 07:00:30;;;;;;;10.20;8.70;;;;;;;-1.90;74.72;101609.49;105848;1259;60448;-72
2023/02/06 07:02:58;;;;;;;11.30;9.10;;;;;;;-1.84;74.75;101614.11;105760;1259;66483;-72
2023/02/06 07:05:27;;;;;;;10.40;8.40;;;;;;;-1.79;74.80;101612.68;105798;1259;60444;-72
2023/02/06 07:07:55;;;;;;;11.50;9.20;;;;;;;-1.73;74.77;101610.21;105631;1259;65570;-72
2023/02/06 07:10:57;;;;;;;10.00;8.30;;;;;;;-1.70;74.66;101608.47;106767;1254;60287;-71
2023/02/06 07:13:44;;;;;;;16.50;11.10;;;;;;;-1.65;74.53;101607.89;105801;1254;60476;-73
2023/02/06 07:16:32;;;;;;;26.70;14.30;;;;;;;-1.59;74.47;101608.52;105830;1257;65477;-72
2023/02/06 07:19:01;;;;;;;19.30;11.90;;;;;;;-1.51;74.43;101609.99;106019;1254;60677;-72
2023/02/06 07:21:30;;;;;;;25.80;13.90;;;;;;;-1.43;74.35;101608.37;106058;1259;65527;-71
2023/02/06 07:23:58;;;;;;;19.40;11.80;;;;;;;-1.36;74.25;101605.53;105981;1255;60494;-73
2023/02/06 07:26:27;;;;;;;12.60;8.80;;;;;;;-1.30;74.14;101609.95;105649;1259;60533;-72
2023/02/06 07:28:55;;;;;;;13.10;10.10;;;;;;;-1.24;73.97;101609.89;105669;1255;66470;-72
2023/02/06 07:31:23;;;;;;;9.80;7.80;;;;;;;-1.20;73.75;101610.17;105839;1258;60517;-71
2023/02/06 07:33:51;;;;;;;8.70;7.30;;;;;;;-1.15;73.62;101610.48;105811;1257;64251;-72
2023/02/06 07:36:19;;;;;;;8.20;7.30;;;;;;;-1.12;73.43;101608.89;105878;1254;60437;-73
2023/02/06 07:38:47;;;;;;;7.60;6.70;;;;;;;-1.11;73.25;101606.98;105749;1254;60501;-70
2023/02/06 07:41:16;;;;;;;8.50;6.90;;;;;;;-1.12;72.99;101611.31;106008;1258;66765;-73
2023/02/06 07:43:45;;;;;;;7.80;6.60;;;;;;;-1.14;72.82;101612.38;105810;1257;60271;-72
2023/02/06 07:46:14;;;;;;;7.90;6.60;;;;;;;-1.17;72.65;101616.89;105721;1261;65652;-72
2023/02/06 07:48:42;;;;;;;6.80;5.50;;;;;;;-1.21;72.33;101617.27;105883;1267;60353;-72
2023/02/06 07:51:11;;;;;;;7.90;5.80;;;;;;;-1.25;72.11;101616.98;105923;1260;60517;-73
2023/02/06 07:53:39;;;;;;;6.80;5.80;;;;;;;-1.30;71.77;101615.99;105776;1260;65546;-73
2023/02/06 07:56:09;;;;;;;7.90;6.00;;;;;;;-1.35;71.63;101616.57;106019;1254;60354;-72
2023/02/06 07:58:37;;;;;;;6.50;5.50;;;;;;;-1.37;71.54;101619.18;105956;1258;65411;-71
2023/02/06 08:01:06;;;;;;;7.70;6.00;;;;;;;-1.40;71.37;101613.69;105935;1255;60429;-72
2023/02/06 08:03:34;;;;;;;7.70;6.10;;;;;;;-1.44;71.16;101615.98;105706;1254;60345;-71
2023/02/06 08:06:10;;;;;;;9.30;6.70;;;;;;;-1.47;71.10;101615.13;105778;1255;65473;-71
2023/02/06 08:08:38;;;;;;;11.80;8.50;;;;;;;-1.46;71.21;101612.35;105748;1257;61244;-70
2023/02/06 08:11:08;;;;;;;13.80;10.60;;;;;;;-1.45;71.01;101611.66;105901;1257;65674;-71
2023/02/06 08:13:36;;;;;;;10.60;8.20;;;;;;;-1.41;71.01;101613.88;105879;1255;60580;-71
2023/02/06 08:16:05;;;;;;;12.80;9.90;;;;;;;-1.37;70.90;101615.38;106000;1254;60597;-72
2023/02/06 08:18:34;;;;;;;9.00;7.10;;;;;;;-1.33;70.89;101616.73;105630;1258;66655;-70
2023/02/06 08:21:03;;;;;;;8.40;6.50;;;;;;;-1.30;70.83;101611.67;105861;1255;60444;-72
2023/02/06 08:23:31;;;;;;;6.30;5.40;;;;;;;-1.27;70.71;101607.67;106000;1257;65657;-71
2023/02/06 08:26:04;;;;;;;11.80;8.70;;;;;;;-1.24;70.67;101603.32;105863;1263;60942;-69
2023/02/06 08:28:34;;;;;;;9.80;7.30;;;;;;;-1.18;70.57;101607.40;105725;1255;60438;-70
2023/02/06 08:31:17;;;;;;;11.00;8.20;;;;;;;-1.09;70.53;101608.52;105812;1255;67032;-71
2023/02/06 08:33:46;;;;;;;8.20;5.90;;;;;;;-0.96;70.53;101604.90;105786;1252;60444;-71
2023/02/06 08:36:16;;;;;;;6.70;5.80;;;;;;;-0.80;70.49;101602.10;105690;1260;65522;-70
2023/02/06 08:38:44;;;;;;;6.80;5.50;;;;;;;-0.63;70.33;101600.83;105767;1260;60473;-72
2023/02/06 08:41:17;;;;;;;6.90;5.80;;;;;;;-0.45;70.41;101601.97;106036;1257;60839;-72
2023/02/06 08:43:46;;;;;;;5.80;4.90;;;;;;;-0.29;70.11;101608.13;105577;1260;66777;-71
2023/02/06 08:46:14;;;;;;;5.90;4.70;;;;;;;-0.23;69.59;101604.92;105863;1257;60434;-71
2023/02/06 08:48:43;;;;;;;6.00;5.00;;;;;;;-0.20;69.29;101605.92;105871;1255;65844;-70
2023/02/06 08:51:11;;;;;;;7.10;5.60;;;;;;;-0.15;69.05;101606.70;105822;1254;60360;-70
2023/02/06 08:53:40;;;;;;;7.60;6.40;;;;;;;-0.09;68.94;101611.45;105839;1255;60406;-71
2023/02/06 08:56:10;;;;;;;7.70;5.90;;;;;;;-0.04;68.75;101610.33;106023;1254;66487;-72
2023/02/06 08:58:38;;;;;;;9.90;6.90;;;;;;;0.03;68.52;101611.45;105836;1254;60587;-72
2023/02/06 09:01:15;;;;;;;8.60;6.30;;;;;;;0.06;68.21;101608.97;105849;1254;65462;-70
2023/02/06 09:03:44;;;;;;;8.80;7.10;;;;;;;0.04;67.84;101610.55;105849;1253;60344;-72
2023/02/06 09:06:13;;;;;;;11.00;8.20;;;;;;;0.02;67.55;101613.37;105856;1254;60408;-71
2023/02/06 09:08:42;;;;;;;8.80;7.20;;;;;;;0.05;67.56;101617.46;105754;1260;66745;-71
2023/02/06 09:11:14;;;;;;;17.50;7.40;;;;;;;0.12;67.37;101614.42;105857;1257;60540;-71
2023/02/06 09:13:46;;;;;;;7.40;6.30;;;;;;;0.17;67.25;101612.06;105941;1254;65570;-69
2023/02/06 09:16:18;;;;;;;7.40;6.30;;;;;;;0.26;67.11;101611.58;106083;1254;60437;-68
2023/02/06 09:18:47;;;;;;;6.60;5.70;;;;;;;0.33;66.84;101613.02;105989;1257;60457;-70
2023/02/06 09:21:18;;;;;;;6.40;5.60;;;;;;;0.39;66.78;101609.96;105957;1256;66248;-72
2023/02/06 09:24:20;;;;;;;7.70;6.20;;;;;;;0.44;66.51;101611.42;105891;1260;60511;-71
2023/02/06 09:26:53;;;;;;;6.80;5.30;;;;;;;0.42;66.07;101613.55;106472;1254;65495;-70
2023/02/06 09:29:28;;;;;;;6.20;5.40;;;;;;;0.37;65.82;101613.13;105708;1254;60522;-69
2023/02/06 09:31:56;;;;;;;7.10;6.00;;;;;;;0.35;65.76;101612.63;105737;1259;60453;-70
2023/02/06 09:34:26;;;;;;;7.50;5.40;;;;;;;0.34;65.76;101611.63;106010;1254;66747;-74
2023/02/06 09:36:55;;;;;;;7.00;5.60;;;;;;;0.31;65.57;101616.35;105921;1260;60406;-73
2023/02/06 09:39:24;;;;;;;6.30;5.50;;;;;;;0.26;65.48;101610.88;105795;1254;65877;-74
2023/02/06 09:41:55;;;;;;;8.60;6.30;;;;;;;0.23;65.35;101608.51;105777;1261;60409;-72
2023/02/06 09:44:33;;;;;;;7.70;6.00;;;;;;;0.20;65.33;101604.06;105864;1257;60533;-72
2023/02/06 09:47:21;;;;;;;10.90;7.80;;;;;;;0.19;65.39;101603.71;105711;1253;65715;-70
2023/02/06 09:49:57;;;;;;;17.50;9.20;;;;;;;0.18;65.38;101602.00;105677;1254;60361;-73
2023/02/06 09:52:49;;;;;;;20.00;10.60;;;;;;;0.17;65.33;101602.36;105771;1254;64582;-71
2023/02/06 09:55:41;;;;;;;10.00;7.30;;;;;;;0.16;65.30;101600.67;106064;1254;60447;-71
2023/02/06 09:58:26;;;;;;;11.10;7.40;;;;;;;0.14;65.16;101602.08;105759;1252;60445;-73
2023/02/06 10:01:04;;;;;;;7.40;5.60;;;;;;;0.13;65.08;101599.52;105718;1254;65542;-72
2023/02/06 10:04:00;;;;;;;13.80;8.20;;;;;;;0.12;65.01;101596.58;105774;1254;60475;-74
2023/02/06 10:06:46;;;;;;;11.20;7.40;;;;;;;0.10;64.93;101593.67;105864;1254;65907;-70
2023/02/06 10:09:20;;;;;;;9.90;6.80;;;;;;;0.09;64.94;101586.73;105685;1254;60405;-70
2023/02/06 10:12:02;;;;;;;;;;;;;;;0.09;64.85;101585.88;105706;1259;60536;-71
2023/02/06 10:14:42;;;;;;;14.90;9.30;;;;;;;0.07;64.67;101586.79;105683;1257;67114;-71
2023/02/06 10:17:24;;;;;;;7.90;6.40;;;;;;;0.04;64.69;101588.05;105705;1254;60463;-73
2023/02/06 10:20:04;;;;;;;15.80;7.10;;;;;;;0.03;64.85;101587.05;105725;1254;65323;-72
2023/02/06 10:22:49;;;;;;;11.40;7.50;;;;;;;0.01;64.94;101584.64;105840;1259;60520;-72
2023/02/06 10:25:24;;;;;;;34.60;9.30;;;;;;;-0.04;65.01;101583.50;105942;1254;60430;-69
2023/02/06 10:28:14;;;;;;;19.20;12.10;;;;;;;-0.04;65.20;101584.71;105591;1254;65729;-69
2023/02/06 10:31:01;;;;;;;14.70;9.80;;;;;;;-0.03;65.38;101583.83;106105;1258;60349;-69
2023/02/06 10:33:36;;;;;;;11.40;8.10;;;;;;;-0.03;65.44;101580.54;106254;1254;65263;-70
2023/02/06 10:36:59;;;;;;;40.10;10.10;;;;;;;-0.03;65.49;101578.80;106051;1256;60459;-69
2023/02/06 10:39:52;;;;;;;43.20;9.60;;;;;;;0.00;65.57;101575.48;105349;1264;60450;-71
2023/02/06 10:42:52;;;;;;;24.90;8.00;;;;;;;0.05;65.53;101574.52;105721;1258;66738;-71
2023/02/06 10:45:53;;;;;;;39.10;8.10;;;;;;;0.08;65.36;101574.11;105751;1257;60453;-71
2023/02/06 10:48:30;;;;;;;27.00;8.40;;;;;;;0.08;64.95;101574.98;105993;1254;65540;-73
2023/02/06 10:51:32;;;;;;;24.10;8.00;;;;;;;0.06;64.73;101576.23;105942;1260;60553;-75
2023/02/06 10:54:24;;;;;;;7.20;5.60;;;;;;;0.07;64.78;101577.08;105975;1258;60596;-71
2023/02/06 10:56:55;;;;;;;7.40;5.30;;;;;;;0.08;64.78;101578.98;105928;1257;66774;-71
2023/02/06 10:59:29;;;;;;;7.00;5.40;;;;;;;0.06;64.74;101575.04;105962;1255;60377;-71
2023/02/06 11:02:06;;;;;;;6.90;5.10;;;;;;;0.07;64.74;101576.75;106041;1255;64814;-70
2023/02/06 11:04:41;;;;;;;8.10;5.50;;;;;;;0.09;64.64;101571.34;105998;1254;60418;-70
2023/02/06 11:07:46;;;;;;;5.90;5.10;;;;;;;0.08;64.53;101571.69;106181;1257;60427;-68
2023/02/06 11:10:16;;;;;;;7.60;6.20;;;;;;;0.06;64.34;101574.33;105237;1261;74042;-72
2023/02/06 11:12:47;;;;;;;6.30;5.10;;;;;;;0.05;64.41;101572.10;106000;1254;60453;-73
2023/02/06 11:15:44;;;;;;;7.60;5.70;;;;;;;0.03;64.09;101570.07;105892;1258;65587;-72
2023/02/06 11:18:17;;;;;;;7.50;5.50;;;;;;;-0.02;63.59;101572.90;105912;1254;60296;-70
2023/02/06 11:20:45;;;;;;;7.50;5.80;;;;;;;-0.08;63.64;101572.13;105888;1254;60626;-70
2023/02/06 11:23:17;;;;;;;9.00;6.40;;;;;;;-0.10;63.62;101575.28;106298;1254;65574;-70
2023/02/06 11:25:50;;;;;;;8.20;5.90;;;;;;;-0.12;63.32;101574.46;105903;1254;60397;-70
2023/02/06 11:28:19;;;;;;;9.60;6.00;;;;;;;-0.15;63.09;101575.55;106042;1254;65537;-75
2023/02/06 11:31:01;;;;;;;8.20;5.80;;;;;;;-0.16;62.85;101578.34;105764;1256;61108;-72
2023/02/06 11:33:53;;;;;;;7.30;5.80;;;;;;;-0.17;62.70;101579.05;105744;1257;60527;-76
2023/02/06 11:36:32;;;;;;;11.00;6.50;;;;;;;-0.20;62.55;101578.90;105669;1256;65610;-76